Map Display - LTBJ to EGCC
(last flight recorded 06-03-2021, 19:52 - Dale Moore)

Aircraft Weights    Units : Maximums
Passengers :    
Cargo : kg kg
Suggested Fuel Load : kg ? kg
 
     
 
Dry Operating : kg    
Total Payload : 0 kg 0 kg
 
Take Off : 15,958 kg kg
 
Expected Landing : 5,774 kg ? kg

Andrew Siddall,  B722 ,  G-BNNI,  .

Route Distance Previous
Flights
Estimated
Duration
Estimated
Fuel Flow
Estimated
Fuel Use
LTBJ - Adnan Menderes, Izmir, Turkey
EGCC - Manchester
1,509 nm 0 04:17 3,208 kg/h 10,184 kg

Current weather :-
2021/03/06 18:03
TAF LTBJ 061640Z 0618/0718 VRB02KT 9999 SCT030 BKN100
TEMPO 0618/0621 -SHRA
BECMG 0705/0707 36014KT CAVOK
BECMG 0709/0711 SCT030
BECMG 0716/0718 CAVOK
2021/03/06 18:09
TAF EGCC 061656Z 0618/0724 29005KT 9999 SCT040 PROB30 0700/0709 9000

Back to Virtual Airline